Terminal Aerodrome Forecast
Issued by NWS

Home | Current Version | Previous Version | Text Only | Print | Product List | Glossary On
Versions: 1 2 3 4 5 6 7 8 9 10 11 12 13 14 15 16
000
FTUS41 KPBZ 140500
TAFBVI
TAF
KBVI 140538Z 1406/1506 23005KT P6SM SCT035 BKN100
     FM140800 22003KT 5SM BR OVC005
     FM141500 22005KT P6SM BKN020
     FM141700 23007KT P6SM VCSH BKN035
      AMD NOT SKED=

USA.gov is the U.S. government's official web portal to all federal, state and local government web resources and services.